createdAt,value
2019-03-26T00:00:09.915Z,7.9
2019-03-26T00:01:11.575Z,7.9
2019-03-26T00:02:13.275Z,7.9
2019-03-26T00:03:14.881Z,7.9
2019-03-26T00:04:16.413Z,7.9
2019-03-26T00:05:17.791Z,7.9
2019-03-26T00:06:19.512Z,7.9
2019-03-26T00:07:21.195Z,7.9
2019-03-26T00:08:22.740Z,7.9
2019-03-26T00:09:24.094Z,7.9
2019-03-26T00:10:25.773Z,7.9
2019-03-26T00:11:27.446Z,7.9
2019-03-26T00:12:29.152Z,7.9
2019-03-26T00:13:30.878Z,7.8
2019-03-26T00:14:32.560Z,7.8
2019-03-26T00:15:34.316Z,7.8
2019-03-26T00:16:35.849Z,7.8
2019-03-26T00:17:37.574Z,7.8
2019-03-26T00:18:39.130Z,7.8
2019-03-26T00:19:40.636Z,7.8
2019-03-26T00:20:42.178Z,7.8
2019-03-26T00:21:43.849Z,7.8
2019-03-26T00:22:45.530Z,7.8
2019-03-26T00:23:47.127Z,7.8
2019-03-26T00:24:48.625Z,7.8
2019-03-26T00:25:50.313Z,7.8
2019-03-26T00:26:52.036Z,7.8
2019-03-26T00:27:53.706Z,7.8
2019-03-26T00:28:55.130Z,7.8
2019-03-26T00:29:56.645Z,7.8
2019-03-26T00:30:58.311Z,7.7
2019-03-26T00:31:59.830Z,7.8
2019-03-26T00:33:01.519Z,7.8
2019-03-26T00:34:02.899Z,7.8
2019-03-26T00:35:04.407Z,7.8
2019-03-26T00:36:06.125Z,7.8
2019-03-26T00:37:07.653Z,7.8
2019-03-26T00:38:09.188Z,7.7
2019-03-26T00:39:10.978Z,7.7
2019-03-26T00:40:12.968Z,7.7
2019-03-26T00:41:14.523Z,7.7
2019-03-26T00:42:16.065Z,7.7
2019-03-26T00:43:17.614Z,7.7
2019-03-26T00:44:19.112Z,7.7
2019-03-26T00:45:20.776Z,7.7
2019-03-26T00:46:22.285Z,7.7
2019-03-26T00:47:23.994Z,7.7
2019-03-26T00:48:25.651Z,7.6
2019-03-26T00:49:27.337Z,7.6
2019-03-26T00:50:28.885Z,7.6
2019-03-26T00:51:30.634Z,7.6
2019-03-26T00:52:32.314Z,7.6
2019-03-26T00:53:33.984Z,7.7
2019-03-26T00:54:35.508Z,7.7
2019-03-26T00:55:37.212Z,7.7
2019-03-26T00:56:38.894Z,7.7
2019-03-26T00:57:40.632Z,7.7
2019-03-26T00:58:42.135Z,7.7
2019-03-26T00:59:43.700Z,7.7
2019-03-26T01:00:45.275Z,7.7
2019-03-26T01:01:46.944Z,7.7
2019-03-26T01:02:48.826Z,7.7
2019-03-26T01:03:50.340Z,7.6
2019-03-26T01:04:51.844Z,7.6
2019-03-26T01:05:53.664Z,7.6
2019-03-26T01:06:55.329Z,7.6
2019-03-26T01:07:56.667Z,7.6
2019-03-26T01:08:58.365Z,7.6
2019-03-26T01:10:00.033Z,7.6
2019-03-26T01:11:01.771Z,7.6
2019-03-26T01:12:03.302Z,7.6
2019-03-26T01:13:05.002Z,7.6
2019-03-26T01:14:06.719Z,7.6
2019-03-26T01:15:08.411Z,7.6
2019-03-26T01:16:10.094Z,7.6
2019-03-26T01:17:11.780Z,7.6
2019-03-26T01:18:13.293Z,7.6
2019-03-26T01:19:14.625Z,7.6
2019-03-26T01:20:16.294Z,7.6
2019-03-26T01:21:17.964Z,7.6
2019-03-26T01:22:19.338Z,7.6
2019-03-26T01:23:20.851Z,7.5
2019-03-26T01:24:22.510Z,7.6
2019-03-26T01:25:23.853Z,7.6
2019-03-26T01:26:25.378Z,7.6
2019-03-26T01:27:27.084Z,7.6
2019-03-26T01:28:28.608Z,7.6
2019-03-26T01:29:30.292Z,7.6
2019-03-26T01:30:32.008Z,7.6
2019-03-26T01:31:33.664Z,7.6
2019-03-26T01:32:35.345Z,7.6
2019-03-26T01:33:37.014Z,7.6
2019-03-26T01:34:47.628Z,7.6
2019-03-26T01:35:48.817Z,7.6
2019-03-26T01:36:50.325Z,7.7
2019-03-26T01:37:51.837Z,7.7
2019-03-26T01:38:53.334Z,7.7
2019-03-26T01:39:55.002Z,7.7
2019-03-26T01:40:56.502Z,7.7
2019-03-26T01:41:58.013Z,7.7
2019-03-26T01:42:59.690Z,7.7
2019-03-26T01:44:01.380Z,7.7
2019-03-26T01:45:02.741Z,7.7
2019-03-26T01:46:04.094Z,7.7
2019-03-26T01:47:05.760Z,7.7
2019-03-26T01:48:07.266Z,7.7
2019-03-26T01:49:08.936Z,7.7
2019-03-26T01:50:10.541Z,7.7
2019-03-26T01:51:12.210Z,7.7
2019-03-26T01:52:13.724Z,7.8
2019-03-26T01:53:15.384Z,7.8
2019-03-26T01:54:17.066Z,7.8
2019-03-26T01:55:18.738Z,7.8
2019-03-26T01:56:20.404Z,7.8
2019-03-26T01:57:22.050Z,7.8
2019-03-26T01:58:23.592Z,7.8
2019-03-26T01:59:25.284Z,7.7
2019-03-26T02:00:26.802Z,7.7
2019-03-26T02:01:28.454Z,7.7
2019-03-26T02:02:30.135Z,7.7
2019-03-26T02:03:31.817Z,7.7
2019-03-26T02:04:33.356Z,7.7
2019-03-26T02:05:34.886Z,7.6
2019-03-26T02:06:36.577Z,7.6
2019-03-26T02:07:40.640Z,7.5
2019-03-26T02:08:42.164Z,7.5
2019-03-26T02:09:43.669Z,7.4
2019-03-26T02:10:45.345Z,7.3
2019-03-26T02:11:47.026Z,7.2
2019-03-26T02:12:50.282Z,7.2
2019-03-26T02:13:51.635Z,7.1
2019-03-26T02:14:53.146Z,7.2
2019-03-26T02:15:54.824Z,7.1
2019-03-26T02:16:56.478Z,7.1
2019-03-26T02:17:58.001Z,7.1
2019-03-26T02:18:59.706Z,7.1
2019-03-26T02:20:01.469Z,7.2
2019-03-26T02:21:03.152Z,7.1
2019-03-26T02:22:04.684Z,7.2
2019-03-26T02:23:06.387Z,7.1
2019-03-26T02:24:08.054Z,7.2
2019-03-26T02:25:09.564Z,7.2
2019-03-26T02:26:11.224Z,7.1
2019-03-26T02:27:12.904Z,7.2
2019-03-26T02:28:14.424Z,7.2
2019-03-26T02:29:16.094Z,7.2
2019-03-26T02:30:17.459Z,7.2
2019-03-26T02:31:19.156Z,7.1
2019-03-26T02:32:20.705Z,7.1
2019-03-26T02:33:22.402Z,7.2
2019-03-26T02:34:24.100Z,7.2
2019-03-26T02:35:25.815Z,7.2
2019-03-26T02:36:27.495Z,7.2
2019-03-26T02:37:29.224Z,7.2
2019-03-26T02:38:31.104Z,7.2
2019-03-26T02:39:32.634Z,7.2
2019-03-26T02:40:34.215Z,7.2
2019-03-26T02:41:39.823Z,7.2
2019-03-26T02:42:41.343Z,7.2
2019-03-26T02:43:42.886Z,7.2
2019-03-26T02:44:44.571Z,7.2
2019-03-26T02:45:46.098Z,7.2
2019-03-26T02:46:47.793Z,7.2
2019-03-26T02:47:49.165Z,7.2
2019-03-26T02:48:50.684Z,7.2
2019-03-26T02:49:52.205Z,7.2
2019-03-26T02:50:53.414Z,7.1
2019-03-26T02:51:55.165Z,7.1
2019-03-26T02:52:56.714Z,7.1
2019-03-26T02:53:58.405Z,7.1
2019-03-26T02:54:59.885Z,7.1
2019-03-26T02:56:01.399Z,7.1
2019-03-26T02:57:03.287Z,7.1
2019-03-26T02:58:04.877Z,7.1
2019-03-26T02:59:06.497Z,7.1
2019-03-26T03:00:07.901Z,7.1
2019-03-26T03:01:09.451Z,7.1
2019-03-26T03:02:11.154Z,7.1
2019-03-26T03:03:12.664Z,7.1
2019-03-26T03:04:14.334Z,7.1
2019-03-26T03:05:33.758Z,7.1
2019-03-26T03:06:36.020Z,7.1
2019-03-26T03:07:37.721Z,7.1
2019-03-26T03:08:39.466Z,7.1
2019-03-26T03:09:41.006Z,7.1
2019-03-26T03:10:42.722Z,7.1
2019-03-26T03:11:44.241Z,7.1
2019-03-26T03:12:45.941Z,7.1
2019-03-26T03:13:47.642Z,7.1
2019-03-26T03:14:49.003Z,7.1
2019-03-26T03:15:50.537Z,7.1
2019-03-26T03:16:52.081Z,7.1
2019-03-26T03:17:53.610Z,7.1
2019-03-26T03:18:55.266Z,7.1
2019-03-26T03:19:57.035Z,7.1
2019-03-26T03:20:58.336Z,7.2
2019-03-26T03:22:00.206Z,7.2
2019-03-26T03:23:01.774Z,7.2
2019-03-26T03:24:03.473Z,7.2
2019-03-26T03:25:05.160Z,7.2
2019-03-26T03:26:06.675Z,7.2
2019-03-26T03:27:08.344Z,7.2
2019-03-26T03:28:10.045Z,7.3
2019-03-26T03:29:11.703Z,7.3
2019-03-26T03:30:13.376Z,7.4
2019-03-26T03:31:15.118Z,7.4
2019-03-26T03:32:16.874Z,7.6
2019-03-26T03:33:18.653Z,7.7
2019-03-26T03:34:20.087Z,7.8
2019-03-26T03:35:21.761Z,7.9
2019-03-26T03:36:23.282Z,7.7
2019-03-26T03:37:25.000Z,7.9
2019-03-26T03:38:26.717Z,7.9
2019-03-26T03:39:28.416Z,7.9
2019-03-26T03:40:30.145Z,7.8
2019-03-26T03:41:31.839Z,7.9
2019-03-26T03:42:33.564Z,7.4
2019-03-26T03:43:35.265Z,7.6
2019-03-26T03:44:37.011Z,7.8
2019-03-26T03:45:38.717Z,7.9
2019-03-26T03:46:40.449Z,7.6
2019-03-26T03:47:41.992Z,7.8
2019-03-26T03:48:43.488Z,7.9
2019-03-26T03:49:45.149Z,7.7
2019-03-26T03:50:46.670Z,7.9
2019-03-26T03:51:48.364Z,7.9
2019-03-26T03:52:49.950Z,7.9
2019-03-26T03:53:51.645Z,7.9
2019-03-26T03:54:53.367Z,7.9
2019-03-26T03:55:55.104Z,7.9
2019-03-26T03:56:56.801Z,7.9
2019-03-26T03:57:58.503Z,7.9
2019-03-26T03:59:00.339Z,7.9
2019-03-26T04:00:02.071Z,7.4
2019-03-26T04:01:03.497Z,7.6
2019-03-26T04:02:05.100Z,7.7
2019-03-26T04:03:06.807Z,7.9
2019-03-26T04:04:08.493Z,7.9
2019-03-26T04:05:10.176Z,7.9
2019-03-26T04:06:12.081Z,7.9
2019-03-26T04:07:13.644Z,7.9
2019-03-26T04:08:15.328Z,7.9
2019-03-26T04:09:17.034Z,7.9
2019-03-26T04:10:18.382Z,7.9
2019-03-26T04:11:20.067Z,7.9
2019-03-26T04:12:21.576Z,7.9
2019-03-26T04:13:23.244Z,7.9
2019-03-26T04:14:24.951Z,7.9
2019-03-26T04:15:26.302Z,7.9
2019-03-26T04:16:27.837Z,7.9
2019-03-26T04:17:29.413Z,7.8
2019-03-26T04:18:30.944Z,7.8
2019-03-26T04:19:32.450Z,7.8
2019-03-26T04:20:34.132Z,7.8
2019-03-26T04:21:35.684Z,7.8
2019-03-26T04:22:37.417Z,7.8
2019-03-26T04:23:38.924Z,7.8
2019-03-26T04:24:40.315Z,7.8
2019-03-26T04:25:41.988Z,7.8
2019-03-26T04:26:43.506Z,7.8
2019-03-26T04:27:45.516Z,7.8
2019-03-26T04:28:46.906Z,7.8
2019-03-26T04:29:48.454Z,7.8
2019-03-26T04:30:50.019Z,7.8
2019-03-26T04:31:51.755Z,7.7
2019-03-26T04:32:53.272Z,7.7
2019-03-26T04:33:55.004Z,7.7
2019-03-26T04:34:56.603Z,7.7
2019-03-26T04:35:58.320Z,7.7
2019-03-26T04:36:59.736Z,7.7
2019-03-26T04:38:01.284Z,7.7
2019-03-26T04:39:02.994Z,7.7
2019-03-26T04:40:04.516Z,7.8
2019-03-26T04:41:06.209Z,7.8
2019-03-26T04:42:07.928Z,7.7
2019-03-26T04:43:09.445Z,7.7
2019-03-26T04:44:11.056Z,7.7
2019-03-26T04:45:12.599Z,7.6
2019-03-26T04:46:14.344Z,7.5
2019-03-26T04:47:15.856Z,7.4
2019-03-26T04:48:17.646Z,7.3
2019-03-26T04:49:19.163Z,7.2
2019-03-26T04:50:20.663Z,7.1
2019-03-26T04:51:22.174Z,7.2
2019-03-26T04:52:23.854Z,7.1
2019-03-26T04:53:25.503Z,7.1
2019-03-26T04:54:27.022Z,7.1
2019-03-26T04:55:28.705Z,7.1
2019-03-26T04:56:30.284Z,7.2
2019-03-26T04:57:31.957Z,7.1
2019-03-26T04:58:33.284Z,7.1
2019-03-26T04:59:34.947Z,7.1
2019-03-26T05:00:36.458Z,7.1
2019-03-26T05:01:38.000Z,7.1
2019-03-26T05:02:39.720Z,7.1
2019-03-26T05:03:41.398Z,7.1
2019-03-26T05:04:43.076Z,7.1
2019-03-26T05:05:44.790Z,7.1
2019-03-26T05:06:46.336Z,7.1
2019-03-26T05:07:48.018Z,7.1
2019-03-26T05:08:49.544Z,7.2
2019-03-26T05:09:51.314Z,7.1
2019-03-26T05:10:52.983Z,7.2
2019-03-26T05:11:54.663Z,7.2
2019-03-26T05:12:56.402Z,7.2
2019-03-26T05:13:58.077Z,7.2
2019-03-26T05:14:59.582Z,7.2
2019-03-26T05:16:01.250Z,7.3
2019-03-26T05:17:02.783Z,7.3
2019-03-26T05:18:04.454Z,7.4
2019-03-26T05:19:06.126Z,7.5
2019-03-26T05:20:07.643Z,7.6
2019-03-26T05:21:09.302Z,7.7
2019-03-26T05:22:24.799Z,7.8
2019-03-26T05:23:26.476Z,7.9
2019-03-26T05:24:28.147Z,7.9
2019-03-26T05:25:29.741Z,7.9
2019-03-26T05:26:31.268Z,7.9
2019-03-26T05:27:47.259Z,7.9
2019-03-26T05:28:48.928Z,7.9
2019-03-26T05:29:50.105Z,7.9
2019-03-26T05:30:51.642Z,7.9
2019-03-26T05:31:53.296Z,7.9
2019-03-26T05:32:54.841Z,7.9
2019-03-26T05:33:56.536Z,7.9
2019-03-26T05:34:58.045Z,7.9
2019-03-26T05:35:59.753Z,7.9
2019-03-26T05:37:01.128Z,7.9
2019-03-26T05:38:02.656Z,7.9
2019-03-26T05:39:04.350Z,7.9
2019-03-26T05:40:05.867Z,7.9
2019-03-26T05:41:10.284Z,7.9
2019-03-26T05:42:12.171Z,7.9
2019-03-26T05:43:13.535Z,7.9
2019-03-26T05:44:15.178Z,7.9
2019-03-26T05:45:16.668Z,7.9
2019-03-26T05:46:18.185Z,7.9
2019-03-26T05:47:19.539Z,7.9
2019-03-26T05:48:20.799Z,7.9
2019-03-26T05:49:22.543Z,7.9
2019-03-26T05:50:24.243Z,7.9
2019-03-26T05:51:25.940Z,7.9
2019-03-26T05:52:27.759Z,7.9
2019-03-26T05:53:29.423Z,7.9
2019-03-26T05:54:30.961Z,7.8
2019-03-26T05:55:32.636Z,7.8
2019-03-26T05:56:34.211Z,7.9
2019-03-26T05:57:35.902Z,7.9
2019-03-26T05:58:37.415Z,7.9
2019-03-26T05:59:39.094Z,7.8
2019-03-26T06:00:40.616Z,7.8
2019-03-26T06:01:42.299Z,7.8
2019-03-26T06:02:44.067Z,7.9
2019-03-26T06:03:45.633Z,7.9
2019-03-26T06:04:47.337Z,7.9
2019-03-26T06:05:49.029Z,7.9
2019-03-26T06:06:50.318Z,7.9
2019-03-26T06:07:51.849Z,7.9
2019-03-26T06:08:53.026Z,7.9
2019-03-26T06:09:54.696Z,7.9
2019-03-26T06:10:56.368Z,7.9
2019-03-26T06:11:58.055Z,7.9
2019-03-26T06:14:15.977Z,7.9
2019-03-26T06:15:17.652Z,7.2
2019-03-26T06:16:19.172Z,7.3
2019-03-26T06:17:20.684Z,7.4
2019-03-26T06:18:22.213Z,7.5
2019-03-26T06:19:23.928Z,7.6
2019-03-26T06:20:25.661Z,7.7
2019-03-26T06:21:27.218Z,7.8
2019-03-26T06:22:29.005Z,7.8
2019-03-26T06:23:30.515Z,7.9
2019-03-26T06:24:32.194Z,7.9
2019-03-26T06:25:33.867Z,7.9
2019-03-26T06:26:35.541Z,7.9
2019-03-26T06:27:51.553Z,7.9
2019-03-26T06:28:53.067Z,7.2
2019-03-26T06:29:54.586Z,7.3
2019-03-26T06:30:56.282Z,7.4
2019-03-26T06:31:57.941Z,7.4
2019-03-26T06:32:59.631Z,7.5
2019-03-26T06:34:01.159Z,7.6
2019-03-26T06:35:02.678Z,7.7
2019-03-26T06:36:04.373Z,7.7
2019-03-26T06:37:19.707Z,7.7
2019-03-26T06:38:21.219Z,7.6
2019-03-26T06:39:22.872Z,7.6
2019-03-26T06:40:24.621Z,7.5
2019-03-26T06:41:26.126Z,7.4
2019-03-26T06:42:27.630Z,7.3
2019-03-26T06:43:29.139Z,7.3
2019-03-26T06:44:30.795Z,7.2
2019-03-26T06:45:32.464Z,7.2
2019-03-26T06:46:34.125Z,7.2
2019-03-26T06:47:35.696Z,7.2
2019-03-26T06:48:37.373Z,7.2
2019-03-26T06:49:38.729Z,7.1
2019-03-26T06:50:40.423Z,7.2
2019-03-26T06:51:42.155Z,7.1
2019-03-26T06:52:43.861Z,7.1
2019-03-26T06:53:45.401Z,7.1
2019-03-26T06:54:46.904Z,7.1
2019-03-26T06:55:48.577Z,7.1
2019-03-26T06:56:50.319Z,7.1
2019-03-26T06:57:52.045Z,7.1
2019-03-26T06:58:53.574Z,7.1
2019-03-26T06:59:55.085Z,7.1
2019-03-26T07:00:56.583Z,7.1
2019-03-26T07:01:58.346Z,7.1
2019-03-26T07:03:00.044Z,7.2
2019-03-26T07:04:01.632Z,7.2
2019-03-26T07:05:02.965Z,7.2
2019-03-26T07:06:04.484Z,7.2
2019-03-26T07:07:06.014Z,7.2
2019-03-26T07:08:07.687Z,7.3
2019-03-26T07:09:09.355Z,7.3
2019-03-26T07:10:11.040Z,7.4
2019-03-26T07:11:12.550Z,7.5
2019-03-26T07:12:14.293Z,7.6
2019-03-26T07:13:15.656Z,7.7
2019-03-26T07:14:17.331Z,7.8
2019-03-26T07:15:18.985Z,7.9
2019-03-26T07:16:20.672Z,7.9
2019-03-26T07:17:22.329Z,7.9
2019-03-26T07:18:23.842Z,7.9
2019-03-26T07:19:25.515Z,7.9
2019-03-26T07:20:27.187Z,7.9
2019-03-26T07:21:28.716Z,7.9
2019-03-26T07:22:30.388Z,7.9
2019-03-26T07:23:32.055Z,7.9
2019-03-26T07:24:33.754Z,7.9
2019-03-26T07:25:35.425Z,7.9
2019-03-26T07:26:37.116Z,7.9
2019-03-26T07:27:38.779Z,7.9
2019-03-26T07:28:40.275Z,7.9
2019-03-26T07:29:41.644Z,7.9
2019-03-26T07:30:43.349Z,7.9
2019-03-26T07:31:45.019Z,7.9
2019-03-26T07:32:46.520Z,7.9
2019-03-26T07:33:48.217Z,7.9
2019-03-26T07:34:49.894Z,7.9
2019-03-26T07:35:51.607Z,7.9
2019-03-26T07:36:53.137Z,7.9
2019-03-26T07:37:54.641Z,7.9
2019-03-26T07:38:56.318Z,7.9
2019-03-26T07:39:57.999Z,7.8
2019-03-26T07:40:59.666Z,7.8
2019-03-26T07:42:01.386Z,7.8
2019-03-26T07:43:02.909Z,7.8
2019-03-26T07:44:04.606Z,7.8
2019-03-26T07:45:06.152Z,7.8
2019-03-26T07:46:07.833Z,7.7
2019-03-26T07:47:09.526Z,7.7
2019-03-26T07:48:11.239Z,7.8
2019-03-26T07:49:12.913Z,7.8
2019-03-26T07:50:15.717Z,7.8
2019-03-26T07:51:17.406Z,7.8
2019-03-26T07:52:19.205Z,7.8
2019-03-26T07:53:20.880Z,7.8
2019-03-26T07:54:23.133Z,7.8
2019-03-26T07:55:24.825Z,7.8
2019-03-26T07:56:26.388Z,7.8
2019-03-26T07:57:27.978Z,7.8
2019-03-26T07:58:29.477Z,7.8
2019-03-26T07:59:31.134Z,7.8
2019-03-26T08:00:32.840Z,7.8
2019-03-26T08:01:34.499Z,7.8
2019-03-26T08:02:36.152Z,7.8
2019-03-26T08:03:37.498Z,7.8
2019-03-26T08:04:39.174Z,7.8
2019-03-26T08:05:40.881Z,7.8
2019-03-26T08:06:42.570Z,7.8
2019-03-26T08:07:43.906Z,7.7
2019-03-26T08:08:45.582Z,7.7
2019-03-26T08:09:46.972Z,7.7
2019-03-26T08:10:48.529Z,7.7
2019-03-26T08:11:49.953Z,7.8
2019-03-26T08:12:51.609Z,7.8
2019-03-26T08:13:53.361Z,7.9
2019-03-26T08:14:55.186Z,7.9
2019-03-26T08:15:56.759Z,7.8
2019-03-26T08:16:58.565Z,7.8
2019-03-26T08:17:59.927Z,7.7
2019-03-26T08:19:01.598Z,7.6
2019-03-26T08:20:03.106Z,7.5
2019-03-26T08:21:04.480Z,7.3
2019-03-26T08:22:05.838Z,7.2
2019-03-26T08:23:07.044Z,7.1
2019-03-26T08:24:08.735Z,7.1
2019-03-26T08:25:10.418Z,7.1
2019-03-26T08:26:12.117Z,7.1
2019-03-26T08:27:13.792Z,7.1
2019-03-26T08:28:15.497Z,7.1
2019-03-26T08:29:17.176Z,7.1
2019-03-26T08:30:18.866Z,7.1
2019-03-26T08:31:20.546Z,7.1
2019-03-26T08:32:22.266Z,7.1
2019-03-26T08:33:25.117Z,7.1
2019-03-26T08:34:26.809Z,7.1
2019-03-26T08:35:28.393Z,7.2
2019-03-26T08:36:30.074Z,7.2
2019-03-26T08:37:31.627Z,7.2
2019-03-26T08:38:35.257Z,7.2
2019-03-26T08:39:36.965Z,7.2
2019-03-26T08:40:38.632Z,7.2
2019-03-26T08:41:40.163Z,7.2
2019-03-26T08:42:41.870Z,7.2
2019-03-26T08:43:43.582Z,7.2
2019-03-26T08:44:45.276Z,7.3
2019-03-26T08:45:46.796Z,7.3
2019-03-26T08:46:48.487Z,7.4
2019-03-26T08:47:50.164Z,7.6
2019-03-26T08:48:51.508Z,7.7
2019-03-26T08:49:53.016Z,7.9
2019-03-26T08:50:54.365Z,7.9
2019-03-26T08:51:56.024Z,7.9
2019-03-26T08:52:57.698Z,7.9
2019-03-26T08:53:59.381Z,7.9
2019-03-26T08:55:04.946Z,7.9
2019-03-26T08:56:06.528Z,7.9
2019-03-26T08:57:08.206Z,7.9
2019-03-26T08:58:09.887Z,7.9
2019-03-26T08:59:11.400Z,7.9
2019-03-26T09:00:12.926Z,7.9
2019-03-26T09:01:14.516Z,7.9
2019-03-26T09:02:16.206Z,7.9
2019-03-26T09:03:17.725Z,7.9
2019-03-26T09:04:19.424Z,7.9
2019-03-26T09:05:21.086Z,7.9
2019-03-26T09:06:22.794Z,7.9
2019-03-26T09:07:24.475Z,7.9
2019-03-26T09:08:27.384Z,7.9
2019-03-26T09:09:28.717Z,7.8
2019-03-26T09:10:30.248Z,7.9
2019-03-26T09:11:31.942Z,7.6
2019-03-26T09:12:33.463Z,7.8
2019-03-26T09:13:34.978Z,7.9
2019-03-26T09:14:36.482Z,7.9
2019-03-26T09:15:37.979Z,7.9
2019-03-26T09:16:39.504Z,7.9
2019-03-26T09:17:44.944Z,7.9
2019-03-26T09:18:46.675Z,7.9
2019-03-26T09:19:48.271Z,7.9
2019-03-26T09:20:49.801Z,7.8
2019-03-26T09:21:51.535Z,7.8
2019-03-26T09:22:53.042Z,7.8
2019-03-26T09:23:54.706Z,7.7
2019-03-26T09:24:56.218Z,7.7
2019-03-26T09:25:57.888Z,7.7
2019-03-26T09:26:59.575Z,7.7
2019-03-26T09:28:01.236Z,7.8
2019-03-26T09:29:02.772Z,7.8
2019-03-26T09:30:03.969Z,7.8
2019-03-26T09:31:05.675Z,7.8
2019-03-26T09:32:07.410Z,7.8
2019-03-26T09:33:08.918Z,7.8
2019-03-26T09:34:11.526Z,7.8
2019-03-26T09:35:13.222Z,7.8
2019-03-26T09:36:14.606Z,7.8
2019-03-26T09:37:16.352Z,7.7
2019-03-26T09:38:17.860Z,7.7
2019-03-26T09:39:19.565Z,7.7
2019-03-26T09:40:20.913Z,7.6
2019-03-26T09:41:22.645Z,7.6
2019-03-26T09:42:24.186Z,7.6
2019-03-26T09:43:25.955Z,7.6
2019-03-26T09:44:27.590Z,7.6
2019-03-26T09:45:29.145Z,7.6
2019-03-26T09:46:30.847Z,7.6
2019-03-26T09:47:32.566Z,7.6
2019-03-26T09:48:33.951Z,7.6
2019-03-26T09:49:35.668Z,7.6
2019-03-26T09:50:37.207Z,7.6
2019-03-26T09:51:38.916Z,7.5
2019-03-26T09:52:40.276Z,7.5
2019-03-26T09:53:41.976Z,7.5
2019-03-26T09:54:43.666Z,7.5
2019-03-26T09:55:45.367Z,7.6
2019-03-26T09:56:46.865Z,7.7
2019-03-26T09:57:48.638Z,7.7
2019-03-26T09:58:50.174Z,7.8
2019-03-26T09:59:51.785Z,7.8
2019-03-26T10:00:53.738Z,7.8
2019-03-26T10:01:55.522Z,7.7
2019-03-26T10:02:57.255Z,7.6
2019-03-26T10:03:58.624Z,7.5
2019-03-26T10:05:00.326Z,7.3
2019-03-26T10:06:01.919Z,7.2
2019-03-26T10:07:03.635Z,7.1
2019-03-26T10:08:05.340Z,7.1
2019-03-26T10:09:06.715Z,7.1
2019-03-26T10:10:08.477Z,7.2
2019-03-26T10:11:10.198Z,7.1
2019-03-26T10:12:11.740Z,7.1
2019-03-26T10:13:13.305Z,7.1
2019-03-26T10:14:15.010Z,7.1
2019-03-26T10:15:16.538Z,7.1
2019-03-26T10:16:18.277Z,7.1
2019-03-26T10:17:19.709Z,7.1
2019-03-26T10:18:21.517Z,7.1
2019-03-26T10:19:23.244Z,7.1
2019-03-26T10:20:24.646Z,7.1
2019-03-26T10:21:26.341Z,7.1
2019-03-26T10:22:27.902Z,7.2
2019-03-26T10:23:29.426Z,7.2
2019-03-26T10:24:30.975Z,7.2
2019-03-26T10:25:32.689Z,7.2
2019-03-26T10:26:33.864Z,7.1
2019-03-26T10:27:36.868Z,7.2
2019-03-26T10:28:38.561Z,7.2
2019-03-26T10:29:39.943Z,7.2
2019-03-26T10:30:41.465Z,7.2
2019-03-26T10:31:42.999Z,7.2
2019-03-26T10:32:44.717Z,7.3
2019-03-26T10:33:46.086Z,7.3
2019-03-26T10:34:47.810Z,7.4
2019-03-26T10:35:49.346Z,7.5
2019-03-26T10:36:51.123Z,7.6
2019-03-26T10:37:52.796Z,7.7
2019-03-26T10:39:07.321Z,7.8
2019-03-26T10:40:09.042Z,7.9
2019-03-26T10:41:10.579Z,7.9
2019-03-26T10:42:12.301Z,7.9
2019-03-26T10:43:13.992Z,7.9
2019-03-26T10:44:15.534Z,7.9
2019-03-26T10:45:17.194Z,7.7
2019-03-26T10:46:18.874Z,7.8
2019-03-26T10:47:20.398Z,7.9
2019-03-26T10:48:21.584Z,7.9
2019-03-26T10:49:23.262Z,7.9
2019-03-26T10:50:24.610Z,7.9
2019-03-26T10:51:25.966Z,7.9
2019-03-26T10:52:34.213Z,7.9
2019-03-26T10:53:36.014Z,7.9
2019-03-26T10:54:37.765Z,7.9
2019-03-26T10:55:39.313Z,7.9
2019-03-26T10:56:40.922Z,7.9
2019-03-26T10:57:42.434Z,7.9
2019-03-26T10:58:43.960Z,7.9
2019-03-26T10:59:45.474Z,7.2
2019-03-26T11:00:46.999Z,7.4
2019-03-26T11:01:48.693Z,7.5
2019-03-26T11:02:50.370Z,7.7
2019-03-26T11:03:52.292Z,7.8
2019-03-26T11:04:53.983Z,7.8
2019-03-26T11:05:55.926Z,7.9
2019-03-26T11:06:57.550Z,7.9
2019-03-26T11:07:59.333Z,7.9
2019-03-26T11:09:00.692Z,7.9
2019-03-26T11:10:02.382Z,7.9
2019-03-26T11:11:04.067Z,7.9
2019-03-26T11:12:05.578Z,7.9
2019-03-26T11:13:07.079Z,7.9
2019-03-26T11:14:08.605Z,7.9
2019-03-26T11:15:10.366Z,7.8
2019-03-26T11:16:26.718Z,7.8
2019-03-26T11:17:28.520Z,7.8
2019-03-26T11:18:30.223Z,7.8
2019-03-26T11:19:31.734Z,7.8
2019-03-26T11:20:33.423Z,7.8
2019-03-26T11:21:34.924Z,7.7
2019-03-26T11:22:36.430Z,7.7
2019-03-26T11:23:38.148Z,7.6
2019-03-26T11:24:39.840Z,7.6
2019-03-26T11:25:41.535Z,7.5
2019-03-26T11:26:43.452Z,7.5
2019-03-26T11:27:45.146Z,7.4
2019-03-26T11:28:46.820Z,7.3
2019-03-26T11:29:48.164Z,7.3
2019-03-26T11:30:49.854Z,7.2
2019-03-26T11:31:51.392Z,7.2
2019-03-26T11:32:52.742Z,7.2
2019-03-26T11:33:54.455Z,7.2
2019-03-26T11:34:56.130Z,7.2
2019-03-26T11:35:57.653Z,7.2
2019-03-26T11:36:59.176Z,7.3
2019-03-26T11:38:00.855Z,7.3
2019-03-26T11:39:02.524Z,7.4
2019-03-26T11:40:04.228Z,7.5
2019-03-26T11:41:05.914Z,7.6
2019-03-26T11:42:07.264Z,7.8
2019-03-26T11:43:08.942Z,7.9
2019-03-26T11:44:10.602Z,7.9
2019-03-26T11:45:11.991Z,7.9
2019-03-26T11:46:13.747Z,7.9
2019-03-26T11:47:15.434Z,7.8
2019-03-26T11:48:17.144Z,7.7
2019-03-26T11:49:18.648Z,7.7
2019-03-26T11:50:20.177Z,7.5
2019-03-26T11:51:21.836Z,7.4
2019-03-26T11:52:23.523Z,7.3
2019-03-26T11:53:25.208Z,7.2
2019-03-26T11:54:26.724Z,7.2
2019-03-26T11:55:28.404Z,7.2
2019-03-26T11:56:29.914Z,7.2
2019-03-26T11:57:31.264Z,7.1
2019-03-26T11:58:33.024Z,7.1
2019-03-26T11:59:34.702Z,7.1
2019-03-26T12:00:36.226Z,7.1
2019-03-26T12:01:37.894Z,7.2
2019-03-26T12:02:39.264Z,7.1
2019-03-26T12:03:40.795Z,7.2
2019-03-26T12:04:42.461Z,7.2
2019-03-26T12:05:44.167Z,7.2
2019-03-26T12:06:45.847Z,7.2
2019-03-26T12:07:47.372Z,7.2
2019-03-26T12:08:48.717Z,7.2
2019-03-26T12:09:50.383Z,7.2
2019-03-26T12:10:51.879Z,7.2
2019-03-26T12:11:53.567Z,7.2
2019-03-26T12:12:55.253Z,7.2
2019-03-26T12:13:56.766Z,7.2
2019-03-26T12:14:58.465Z,7.2
2019-03-26T12:16:00.160Z,7.3
2019-03-26T12:17:01.733Z,7.3
2019-03-26T12:18:03.424Z,7.3
2019-03-26T12:19:04.790Z,7.4
2019-03-26T12:20:06.499Z,7.4
2019-03-26T12:21:07.858Z,7.5
2019-03-26T12:22:09.562Z,7.5
2019-03-26T12:23:11.262Z,7.6
2019-03-26T12:24:12.622Z,7.6
2019-03-26T12:25:14.294Z,7.7
2019-03-26T12:26:15.814Z,7.8
2019-03-26T12:27:17.164Z,7.8
2019-03-26T12:28:18.841Z,7.8
2019-03-26T12:29:20.514Z,7.8
2019-03-26T12:30:22.034Z,7.8
2019-03-26T12:31:23.812Z,7.9
2019-03-26T12:32:25.486Z,7.8
2019-03-26T12:33:27.023Z,7.8
2019-03-26T12:34:28.514Z,7.9
2019-03-26T12:35:30.182Z,7.9
2019-03-26T12:36:41.809Z,7.9
2019-03-26T12:37:43.498Z,7.9
2019-03-26T12:38:45.199Z,7.8
2019-03-26T12:40:01.998Z,7.8
2019-03-26T12:41:03.357Z,7.8
2019-03-26T12:42:04.900Z,7.8
2019-03-26T12:43:06.600Z,7.8
2019-03-26T12:44:08.120Z,7.8
2019-03-26T12:45:09.686Z,7.8
2019-03-26T12:46:11.406Z,7.9
2019-03-26T12:47:13.086Z,7.9
2019-03-26T12:48:14.795Z,7.9
2019-03-26T12:49:16.186Z,7.6
2019-03-26T12:50:17.893Z,7.7
2019-03-26T12:51:19.595Z,7.9
2019-03-26T12:52:21.090Z,7.9
2019-03-26T12:53:22.763Z,7.9
2019-03-26T12:54:24.499Z,7.9
2019-03-26T12:55:26.225Z,7.9
2019-03-26T12:56:27.986Z,7.9
2019-03-26T12:57:29.670Z,7.9
2019-03-26T12:58:37.712Z,7.9
2019-03-26T12:59:39.257Z,7.9
2019-03-26T13:00:40.943Z,7.9
2019-03-26T13:01:42.624Z,7.9
2019-03-26T13:02:44.321Z,7.9
2019-03-26T13:03:45.856Z,7.9
2019-03-26T13:04:47.375Z,7.9
2019-03-26T13:05:49.316Z,7.9
2019-03-26T13:06:50.984Z,7.9
2019-03-26T13:07:52.661Z,7.9
2019-03-26T13:08:54.175Z,7.9
2019-03-26T13:09:55.868Z,7.9
2019-03-26T13:10:57.564Z,7.9
2019-03-26T13:11:59.254Z,7.9
2019-03-26T13:13:00.775Z,7.9
2019-03-26T13:14:02.130Z,7.9
2019-03-26T13:15:03.643Z,7.9
2019-03-26T13:16:05.155Z,7.9
2019-03-26T13:17:06.675Z,7.9
2019-03-26T13:18:11.643Z,7.9
2019-03-26T13:19:13.332Z,7.9
2019-03-26T13:20:14.871Z,7.9
2019-03-26T13:21:16.219Z,7.9
2019-03-26T13:22:17.925Z,7.9
2019-03-26T13:23:19.655Z,7.9
2019-03-26T13:24:21.173Z,7.8
2019-03-26T13:25:22.699Z,7.8
2019-03-26T13:26:24.516Z,7.7
2019-03-26T13:27:26.183Z,7.5
2019-03-26T13:28:27.705Z,7.3
2019-03-26T13:29:29.326Z,7.1
2019-03-26T13:30:31.021Z,7.1
2019-03-26T13:31:32.560Z,7.1
2019-03-26T13:32:34.083Z,7.1
2019-03-26T13:33:35.435Z,7.1
2019-03-26T13:34:37.112Z,7.1
2019-03-26T13:35:38.783Z,7.1
2019-03-26T13:36:40.296Z,7.1
2019-03-26T13:37:41.806Z,7.1
2019-03-26T13:38:43.544Z,7.1
2019-03-26T13:39:45.265Z,7.1
2019-03-26T13:40:46.967Z,7.1
2019-03-26T13:41:48.656Z,7.1
2019-03-26T13:42:50.171Z,7.1
2019-03-26T13:43:51.672Z,7.1
2019-03-26T13:44:53.375Z,7.2
2019-03-26T13:45:54.897Z,7.1
2019-03-26T13:46:56.566Z,7.2
2019-03-26T13:47:58.260Z,7.2
2019-03-26T13:48:59.973Z,7.2
2019-03-26T13:50:01.971Z,7.2
2019-03-26T13:51:03.556Z,7.2
2019-03-26T13:52:05.244Z,7.2
2019-03-26T13:53:06.593Z,7.2
2019-03-26T13:54:08.105Z,7.2
2019-03-26T13:55:09.781Z,7.2
2019-03-26T13:56:11.476Z,7.2
2019-03-26T13:57:12.836Z,7.2
2019-03-26T13:58:14.366Z,7.3
2019-03-26T13:59:16.096Z,7.3
2019-03-26T14:00:17.785Z,7.4
2019-03-26T14:01:19.343Z,7.5
2019-03-26T14:02:21.096Z,7.5
2019-03-26T14:03:22.634Z,7.7
2019-03-26T14:04:24.345Z,7.8
2019-03-26T14:05:26.061Z,7.9
2019-03-26T14:06:27.769Z,7.9
2019-03-26T14:07:29.468Z,7.9
2019-03-26T14:08:31.216Z,7.9
2019-03-26T14:09:32.903Z,7.9
2019-03-26T14:10:43.032Z,7.9
2019-03-26T14:11:44.822Z,7.9
2019-03-26T14:12:46.516Z,7.9